KFAF

Felker AAF Airport

Fort Eustis, Virginia, USA
METAR KFAF 210356Z AUTO 25003KT 10SM CLR 09/01 A3009 RMK AO2 SLP193 T00870007 $
Observed Flight Rules
Jan-21 @ 03:56 UTC (44 minutes ago) Visual Flight Rules
Wind Visibility Clouds
250° at 3 knots 10 miles
  • Clear skies
Temperatures Readings
Current 9°C / 48°F
Dewpoint 1°C / 34°F
Humidity 58%
Altimeter 30.09" Hg
Pressure 1019.3 hPa
Elevation 4
METAR KFAF 210356Z AUTO 25003KT 10SM CLR 09/01 A3009 RMK AO2 SLP193 T00870007 $
Observed Flight Rules
Jan-21 @ 03:56 UTC
(44 minutes ago)
VFR
Wind Visibility
250° at 3 knots 10 miles
Clouds
  • Clear skies
Temperature Dewpoint
9°C / 48°F 1°C / 34°F
Humidity Altimeter Pressure
58% 30.09" Hg 1019.3 hPa